Time;durP1;ratioP1;P1;durP2;ratioP2;P2;SDS_P1;SDS_P2;PMS_P1;PMS_P2;Temp;Humidity;BMP_temperature;BMP_pressure;BME280_temperature;BME280_humidity;BME280_pressure;Samples;Min_cycle;Max_cycle;Signal;HPM_P1;HPM_P2
2022/11/01 00:02:23;;;;;;;21.02;15.38;;;9.90;99.90;;;;;;5136295;27;20274;-73
2022/11/01 00:04:49;;;;;;;19.40;14.70;;;9.80;99.90;;;;;;5119628;27;20179;-73
2022/11/01 00:07:14;;;;;;;22.60;15.38;;;9.80;99.90;;;;;;5137343;27;20179;-73
2022/11/01 00:09:40;;;;;;;22.05;15.70;;;9.80;99.90;;;;;;5136222;27;20179;-73
2022/11/01 00:12:05;;;;;;;19.10;15.05;;;9.80;99.90;;;;;;5136491;27;20211;-73
2022/11/01 00:14:31;;;;;;;19.55;15.23;;;9.80;99.90;;;;;;5136861;27;20630;-73
2022/11/01 00:16:56;;;;;;;22.10;15.55;;;9.80;99.90;;;;;;5136619;27;20182;-74
2022/11/01 00:19:22;;;;;;;22.23;17.60;;;9.80;99.90;;;;;;5136148;27;20207;-74
2022/11/01 00:21:47;;;;;;;53.80;39.47;;;9.80;99.90;;;;;;5136860;27;20203;-74
2022/11/01 00:24:13;;;;;;;78.90;55.60;;;9.70;99.90;;;;;;5135963;27;20228;-73
2022/11/01 00:26:39;;;;;;;98.55;67.38;;;9.80;99.90;;;;;;5118739;27;20584;-74
2022/11/01 00:29:04;;;;;;;56.58;41.92;;;9.70;99.90;;;;;;5118778;27;20281;-74
2022/11/01 00:31:30;;;;;;;29.55;22.88;;;9.70;99.90;;;;;;5135712;27;20207;-74
2022/11/01 00:33:56;;;;;;;42.58;22.73;;;9.80;99.90;;;;;;5136144;27;20270;-74
2022/11/01 00:36:24;;;;;;;33.72;23.98;;;9.80;99.90;;;;;;5137221;27;20195;-74
2022/11/01 00:38:52;;;;;;;44.47;20.90;;;9.80;99.90;;;;;;5135943;27;20192;-73
2022/11/01 00:41:19;;;;;;;30.75;19.92;;;9.70;99.90;;;;;;5136480;27;20171;-74
2022/11/01 00:43:45;;;;;;;60.25;21.70;;;9.70;99.90;;;;;;5118772;27;20180;-74
2022/11/01 00:46:11;;;;;;;43.28;20.98;;;9.70;99.90;;;;;;5118490;27;20191;-74
2022/11/01 00:48:36;;;;;;;38.42;20.52;;;9.80;99.90;;;;;;5118102;27;20224;-74
2022/11/01 00:51:02;;;;;;;36.45;20.48;;;9.80;99.90;;;;;;5134975;27;20561;-74
2022/11/01 00:53:27;;;;;;;30.88;20.73;;;9.90;99.90;;;;;;5117849;27;20209;-74
2022/11/01 00:55:59;;;;;;;38.55;24.60;;;10.00;99.90;;;;;;5136416;27;20175;-74
2022/11/01 00:58:24;;;;;;;161.80;39.90;;;10.00;99.90;;;;;;5117807;27;20239;-74
2022/11/01 01:00:50;;;;;;;47.30;30.65;;;9.90;99.90;;;;;;5117851;27;20587;-74
2022/11/01 01:03:15;;;;;;;35.65;22.40;;;9.80;99.90;;;;;;5135516;27;20172;-74
2022/11/01 01:05:41;;;;;;;38.58;22.52;;;9.90;99.90;;;;;;5134986;27;20171;-74
2022/11/01 01:11:29;;;;;;;33.92;22.27;;;10.00;99.90;;;;;;5135804;27;20240;-74
2022/11/01 01:13:54;;;;;;;33.40;22.90;;;9.90;99.90;;;;;;5117489;27;20258;-74
2022/11/01 01:16:20;;;;;;;27.55;21.65;;;10.00;99.90;;;;;;5135981;27;20246;-74
2022/11/01 01:18:46;;;;;;;29.80;21.02;;;10.10;99.90;;;;;;5135526;27;20191;-74
2022/11/01 01:21:12;;;;;;;27.17;21.02;;;10.10;99.90;;;;;;5135932;27;20178;-74
2022/11/01 01:23:38;;;;;;;26.65;20.83;;;10.10;99.90;;;;;;5134437;27;20175;-74
2022/11/01 01:26:08;;;;;;;26.40;20.60;;;10.10;99.90;;;;;;5117848;27;20183;-74
2022/11/01 01:28:35;;;;;;;23.75;19.83;;;10.10;99.90;;;;;;5117203;27;20207;-74
2022/11/01 01:31:05;;;;;;;28.75;20.33;;;10.10;99.90;;;;;;5134097;27;20199;-74
2022/11/01 01:33:31;;;;;;;22.92;18.30;;;10.10;99.90;;;;;;5135663;27;20190;-74
2022/11/01 01:35:59;;;;;;;26.30;18.80;;;10.00;99.90;;;;;;5134353;27;20638;-74
2022/11/01 01:38:25;;;;;;;26.73;18.10;;;10.10;99.90;;;;;;5117475;27;20551;-74
2022/11/01 01:40:50;;;;;;;25.73;18.67;;;10.10;99.90;;;;;;5134300;27;20221;-73
2022/11/01 01:43:16;;;;;;;25.00;17.75;;;10.10;99.90;;;;;;5135341;27;20174;-72
2022/11/01 01:45:42;;;;;;;25.15;18.20;;;10.10;99.90;;;;;;5134537;27;20171;-72
2022/11/01 01:48:36;;;;;;;24.92;17.48;;;10.10;99.90;;;;;;5116620;27;20729;-72
2022/11/01 01:51:05;;;;;;;19.73;16.80;;;10.10;99.90;;;;;;5112506;27;20207;-72
2022/11/01 01:53:35;;;;;;;22.23;16.67;;;10.10;99.90;;;;;;5117528;27;20189;-72
2022/11/01 01:56:12;;;;;;;21.73;15.70;;;10.20;99.90;;;;;;5136052;27;20174;-72
2022/11/01 01:59:01;;;;;;;24.73;18.10;;;10.20;99.90;;;;;;5117334;27;20191;-72
2022/11/01 02:01:27;;;;;;;28.25;19.20;;;10.20;99.90;;;;;;5117362;27;20175;-72
2022/11/01 02:03:53;;;;;;;27.10;18.30;;;10.30;99.90;;;;;;5116434;27;20179;-72
2022/11/01 02:06:21;;;;;;;31.15;20.80;;;10.30;99.90;;;;;;5135609;27;20171;-72
2022/11/01 02:08:56;;;;;;;28.13;19.90;;;10.30;99.90;;;;;;5116601;28;20286;-72
2022/11/01 02:11:22;;;;;;;30.00;18.88;;;10.20;99.90;;;;;;5116235;27;20255;-72
2022/11/01 02:13:48;;;;;;;23.80;18.58;;;10.20;99.90;;;;;;5133581;27;20705;-72
2022/11/01 02:20:09;;;;;;;16.30;14.77;;;10.10;99.90;;;;;;5134896;27;20210;-72
2022/11/01 02:23:11;;;;;;;14.85;13.43;;;10.00;99.90;;;;;;5093669;27;20179;-72
2022/11/01 02:26:08;;;;;;;17.73;16.02;;;10.10;99.90;;;;;;5134895;27;20183;-72
2022/11/01 02:28:42;;;;;;;14.52;13.23;;;10.00;99.90;;;;;;5134527;27;20183;-73
2022/11/01 02:31:26;;;;;;;13.93;12.52;;;10.00;99.90;;;;;;5134912;27;20182;-73
2022/11/01 02:34:08;;;;;;;13.18;12.07;;;10.10;99.90;;;;;;5116031;28;20163;-73
2022/11/01 02:36:44;;;;;;;13.25;11.95;;;10.10;99.90;;;;;;5116966;28;20516;-73
2022/11/01 02:39:32;;;;;;;12.50;11.40;;;10.20;99.90;;;;;;5116059;28;20191;-73
2022/11/01 02:42:14;;;;;;;13.57;11.90;;;10.20;99.90;;;;;;5116062;28;20192;-73
2022/11/01 02:44:43;;;;;;;12.18;10.77;;;10.20;99.90;;;;;;5116034;28;20183;-73
2022/11/01 02:47:11;;;;;;;12.65;11.45;;;10.20;99.90;;;;;;5115829;28;20182;-73
2022/11/01 02:49:50;;;;;;;13.85;12.65;;;10.20;99.90;;;;;;5116085;28;20206;-73
2022/11/01 02:52:22;;;;;;;18.42;14.85;;;10.20;99.90;;;;;;5115962;28;20670;-73
2022/11/01 02:54:56;;;;;;;19.60;15.43;;;10.20;99.90;;;;;;5134671;28;20171;-73
2022/11/01 02:57:33;;;;;;;17.05;14.10;;;10.20;99.90;;;;;;5115909;27;20691;-73
2022/11/01 03:00:03;;;;;;;16.10;13.90;;;10.20;99.90;;;;;;5116804;28;20219;-73
2022/11/01 03:02:40;;;;;;;15.98;12.85;;;10.20;99.90;;;;;;5134263;28;20171;-73
2022/11/01 03:05:20;;;;;;;12.77;11.45;;;10.10;99.90;;;;;;5115954;28;20171;-73
2022/11/01 03:07:51;;;;;;;13.20;11.82;;;10.10;99.90;;;;;;5132936;28;20199;-73
2022/11/01 03:10:20;;;;;;;13.02;11.68;;;10.20;99.90;;;;;;5134092;28;20189;-73
2022/11/01 03:13:12;;;;;;;14.27;12.77;;;10.20;99.90;;;;;;5116438;28;20221;-73
2022/11/01 03:15:49;;;;;;;17.60;13.82;;;10.30;99.90;;;;;;5116013;28;20167;-73
2022/11/01 03:18:30;;;;;;;22.40;15.52;;;10.40;99.90;;;;;;5116761;28;20275;-73
2022/11/01 03:21:14;;;;;;;20.23;14.45;;;10.40;99.90;;;;;;5135763;27;20159;-73
2022/11/01 03:23:46;;;;;;;14.80;13.07;;;10.50;99.90;;;;;;5120611;27;20287;-73
2022/11/01 03:26:16;;;;;;;19.30;13.05;;;10.50;99.90;;;;;;5119651;27;20583;-73
2022/11/01 03:28:45;;;;;;;17.45;12.25;;;10.50;99.90;;;;;;5119604;27;20195;-73
2022/11/01 03:31:14;;;;;;;18.95;12.38;;;10.60;99.90;;;;;;5137888;27;20231;-73
2022/11/01 03:34:04;;;;;;;14.98;12.38;;;10.50;99.90;;;;;;5119385;27;20207;-73
2022/11/01 03:36:38;;;;;;;13.93;12.48;;;10.40;99.90;;;;;;5120520;27;20177;-73
2022/11/01 03:39:11;;;;;;;15.30;13.23;;;10.40;99.90;;;;;;5137832;27;20187;-73
2022/11/01 03:41:43;;;;;;;13.90;12.55;;;10.40;99.90;;;;;;5138019;27;20195;-73
2022/11/01 03:44:11;;;;;;;13.85;12.32;;;10.30;99.90;;;;;;5120153;27;20160;-73
2022/11/01 03:46:37;;;;;;;14.80;12.73;;;10.30;99.90;;;;;;5136393;27;20183;-74
2022/11/01 03:49:03;;;;;;;15.40;13.80;;;10.30;99.90;;;;;;5137860;27;20211;-74
2022/11/01 03:51:29;;;;;;;15.65;13.38;;;10.30;99.90;;;;;;5137427;27;20200;-74
2022/11/01 03:53:54;;;;;;;16.63;13.68;;;10.30;99.90;;;;;;5137566;27;20167;-74
2022/11/01 03:56:20;;;;;;;16.58;13.27;;;10.30;99.90;;;;;;5137410;27;20665;-74
2022/11/01 03:58:46;;;;;;;14.52;13.13;;;10.40;99.90;;;;;;5136534;27;20271;-73
2022/11/01 04:01:14;;;;;;;14.10;12.65;;;10.30;99.90;;;;;;5119008;27;20183;-73
2022/11/01 04:03:40;;;;;;;14.60;12.60;;;10.30;99.90;;;;;;5119267;27;20180;-73
2022/11/01 04:06:07;;;;;;;14.50;12.77;;;10.30;99.90;;;;;;5137476;27;20179;-73
2022/11/01 04:08:32;;;;;;;13.43;12.07;;;10.30;99.90;;;;;;5119734;27;20206;-73
2022/11/01 04:10:58;;;;;;;13.63;12.23;;;10.30;99.90;;;;;;5119078;27;20176;-73
2022/11/01 04:13:24;;;;;;;13.73;11.45;;;10.30;99.90;;;;;;5136002;27;20202;-73
2022/11/01 04:21:20;;;;;;;14.35;11.75;;;10.40;99.90;;;;;;5137645;27;20155;-73
2022/11/01 04:23:46;;;;;;;14.18;12.70;;;10.40;99.90;;;;;;5118489;27;20188;-73
2022/11/01 04:26:17;;;;;;;13.88;12.43;;;10.40;99.90;;;;;;5137783;27;20178;-73
2022/11/01 04:28:58;;;;;;;12.57;11.27;;;10.40;99.90;;;;;;5136769;27;20195;-73
2022/11/01 04:31:28;;;;;;;12.50;11.27;;;10.50;99.90;;;;;;5137509;27;20192;-73
2022/11/01 04:33:55;;;;;;;12.45;11.27;;;10.50;99.90;;;;;;5117798;27;20232;-73
2022/11/01 04:36:21;;;;;;;13.10;11.85;;;10.60;99.90;;;;;;5137084;27;20176;-73
2022/11/01 04:38:49;;;;;;;16.70;12.05;;;10.60;99.90;;;;;;5136998;27;20244;-73
2022/11/01 04:41:18;;;;;;;14.77;12.00;;;10.60;99.90;;;;;;5118691;27;20179;-73
2022/11/01 04:43:46;;;;;;;16.20;11.80;;;10.60;99.90;;;;;;5136675;27;20533;-73
2022/11/01 04:46:12;;;;;;;16.38;12.55;;;10.60;99.90;;;;;;5118365;27;20715;-73
2022/11/01 04:48:37;;;;;;;12.57;11.00;;;10.70;99.90;;;;;;5135474;27;20199;-73
2022/11/01 04:51:03;;;;;;;11.93;10.63;;;10.70;99.90;;;;;;5118635;27;20171;-73
2022/11/01 04:53:29;;;;;;;16.45;10.80;;;10.70;99.90;;;;;;5136802;27;20191;-73
2022/11/01 04:55:54;;;;;;;14.40;11.05;;;10.80;99.90;;;;;;5135239;27;20201;-73
2022/11/01 04:58:20;;;;;;;12.40;11.15;;;10.80;99.90;;;;;;5136415;27;20247;-73
2022/11/01 05:00:46;;;;;;;12.45;10.23;;;10.80;99.90;;;;;;5135026;27;20202;-73
2022/11/01 05:03:11;;;;;;;13.73;10.63;;;10.90;99.90;;;;;;5117769;27;20182;-73
2022/11/01 05:05:38;;;;;;;13.18;11.73;;;10.90;99.90;;;;;;5135205;27;20175;-73
2022/11/01 05:08:09;;;;;;;14.45;12.95;;;10.90;99.90;;;;;;5118072;27;20253;-73
2022/11/01 05:10:36;;;;;;;13.40;11.40;;;10.90;99.90;;;;;;5118511;27;20175;-73
2022/11/01 05:13:03;;;;;;;22.60;12.00;;;10.90;99.90;;;;;;5117555;27;20203;-73
2022/11/01 05:15:28;;;;;;;16.42;12.02;;;10.80;99.90;;;;;;5136072;27;20301;-73
2022/11/01 05:17:54;;;;;;;14.43;11.63;;;10.80;99.90;;;;;;5134768;27;20227;-73
2022/11/01 05:20:20;;;;;;;15.07;11.70;;;10.90;99.90;;;;;;5134811;27;20195;-73
2022/11/01 05:22:45;;;;;;;14.88;12.30;;;10.90;99.90;;;;;;5135596;27;20203;-73
2022/11/01 05:25:11;;;;;;;21.48;15.45;;;10.90;99.90;;;;;;5134386;27;20243;-73
2022/11/01 05:27:37;;;;;;;20.63;15.85;;;11.00;99.90;;;;;;5117977;27;20206;-73
2022/11/01 05:30:04;;;;;;;16.20;14.05;;;11.00;99.90;;;;;;5117121;27;20268;-73
2022/11/01 05:32:30;;;;;;;25.42;15.18;;;11.10;99.90;;;;;;5135576;27;20248;-73
2022/11/01 05:34:55;;;;;;;22.40;14.32;;;11.10;99.90;;;;;;5135349;27;20168;-73
2022/11/01 05:37:21;;;;;;;24.67;15.63;;;11.10;99.90;;;;;;5117225;27;20540;-73
2022/11/01 05:39:46;;;;;;;19.63;16.02;;;11.10;99.90;;;;;;5116858;27;20180;-73
2022/11/01 05:42:12;;;;;;;19.30;14.70;;;11.10;99.90;;;;;;5135202;27;20660;-73
2022/11/01 05:44:37;;;;;;;16.23;14.05;;;11.10;99.90;;;;;;5134246;27;20175;-73
2022/11/01 05:47:04;;;;;;;21.52;15.80;;;11.10;99.90;;;;;;5135698;27;20168;-73
2022/11/01 05:49:30;;;;;;;18.17;13.95;;;11.10;99.90;;;;;;5116702;27;20199;-73
2022/11/01 05:55:18;;;;;;;21.85;16.38;;;11.10;99.90;;;;;;5135330;27;20150;-73
2022/11/01 05:57:44;;;;;;;20.05;15.48;;;11.10;99.90;;;;;;5135177;27;20192;-73
2022/11/01 06:00:10;;;;;;;18.20;16.00;;;11.20;99.90;;;;;;5133668;27;20171;-73
2022/11/01 06:02:36;;;;;;;23.27;16.25;;;11.20;99.90;;;;;;5116551;27;20179;-73
2022/11/01 06:05:02;;;;;;;21.58;17.27;;;11.20;99.90;;;;;;5134572;27;20219;-73
2022/11/01 06:07:27;;;;;;;22.40;18.10;;;11.20;99.90;;;;;;5133885;27;20194;-73
2022/11/01 06:09:53;;;;;;;22.58;17.60;;;11.20;99.90;;;;;;5135349;27;20250;-73
2022/11/01 06:12:21;;;;;;;21.85;16.73;;;11.20;99.90;;;;;;5133468;27;20207;-73
2022/11/01 06:14:47;;;;;;;34.80;21.40;;;11.20;99.90;;;;;;5116739;27;20290;-73
2022/11/01 06:17:13;;;;;;;21.35;18.08;;;11.30;99.90;;;;;;5133722;27;20211;-73
2022/11/01 06:19:39;;;;;;;24.45;19.60;;;11.30;99.90;;;;;;5133712;27;20302;-73
2022/11/01 06:22:04;;;;;;;25.77;21.05;;;11.30;99.90;;;;;;5134558;27;20171;-73
2022/11/01 06:24:30;;;;;;;24.13;19.85;;;11.30;99.90;;;;;;5134550;27;20221;-73
2022/11/01 06:26:56;;;;;;;31.08;26.42;;;11.30;99.90;;;;;;5117037;27;20201;-73
2022/11/01 06:29:35;;;;;;;24.30;19.95;;;11.30;99.90;;;;;;5133522;27;20199;-73
2022/11/01 06:32:02;;;;;;;30.65;25.17;;;11.40;99.90;;;;;;5133741;27;20665;-73
2022/11/01 06:34:28;;;;;;;30.65;24.90;;;11.40;99.90;;;;;;5116631;28;20646;-73
2022/11/01 06:36:53;;;;;;;34.25;24.02;;;11.40;99.90;;;;;;5133235;27;20172;-73
2022/11/01 06:39:19;;;;;;;29.35;22.98;;;11.40;99.90;;;;;;5133164;27;20191;-73
2022/11/01 06:41:44;;;;;;;25.85;21.70;;;11.40;99.90;;;;;;5134407;28;20186;-73
2022/11/01 06:44:10;;;;;;;24.63;21.33;;;11.40;99.90;;;;;;5133168;28;20194;-73
2022/11/01 06:46:35;;;;;;;34.38;22.50;;;11.40;99.90;;;;;;5134646;28;20168;-73
2022/11/01 06:49:01;;;;;;;28.80;22.33;;;11.40;99.90;;;;;;5116439;28;20337;-73
2022/11/01 06:51:28;;;;;;;35.65;26.83;;;11.50;99.90;;;;;;5134953;28;20281;-74
2022/11/01 06:53:53;;;;;;;27.08;22.85;;;11.50;99.90;;;;;;5134798;28;20197;-74
2022/11/01 06:59:54;;;;;;;30.13;22.13;;;11.50;99.90;;;;;;5139437;27;20216;-74
2022/11/01 07:02:19;;;;;;;24.42;20.55;;;11.50;99.90;;;;;;5139334;27;20179;-74
2022/11/01 07:04:45;;;;;;;29.92;21.65;;;11.50;99.90;;;;;;5138668;27;20172;-74
2022/11/01 07:07:12;;;;;;;23.58;20.58;;;11.50;99.90;;;;;;5138872;27;20209;-74
2022/11/01 07:09:38;;;;;;;26.80;20.10;;;11.60;99.90;;;;;;5120695;27;20214;-73
2022/11/01 07:12:04;;;;;;;29.52;21.45;;;11.60;99.90;;;;;;5137200;27;20195;-73
2022/11/01 07:14:30;;;;;;;27.55;20.85;;;11.60;99.90;;;;;;5137259;27;20223;-73
2022/11/01 07:16:55;;;;;;;28.98;23.73;;;11.70;99.90;;;;;;5138280;27;20175;-73
2022/11/01 07:19:22;;;;;;;27.92;22.83;;;11.70;99.90;;;;;;5138562;27;20203;-73
2022/11/01 07:21:48;;;;;;;25.20;21.70;;;11.80;99.90;;;;;;5138626;27;20175;-73
2022/11/01 07:24:14;;;;;;;26.38;22.15;;;11.90;99.90;;;;;;5120581;27;20239;-73
